createdAt,value
2023-04-15T00:00:28.369Z,24.12
2023-04-15T00:01:28.365Z,24.12
2023-04-15T00:02:28.487Z,24.11
2023-04-15T00:03:28.612Z,24.12
2023-04-15T00:04:28.481Z,24.11
2023-04-15T00:05:28.368Z,24.11
2023-04-15T00:06:28.431Z,24.11
2023-04-15T00:07:28.475Z,24.11
2023-04-15T00:08:28.516Z,24.11
2023-04-15T00:09:28.562Z,24.11
2023-04-15T00:10:28.596Z,24.11
2023-04-15T00:11:28.645Z,24.11
2023-04-15T00:12:28.662Z,24.11
2023-04-15T00:13:28.696Z,24.11
2023-04-15T00:14:28.754Z,24.11
2023-04-15T00:15:28.775Z,24.11
2023-04-15T00:16:28.916Z,24.11
2023-04-15T00:17:28.874Z,24.11
2023-04-15T00:18:28.918Z,24.10
2023-04-15T00:19:28.976Z,24.10
2023-04-15T00:20:28.990Z,24.11
2023-04-15T00:21:29.109Z,24.11
2023-04-15T00:22:29.086Z,24.11
2023-04-15T00:23:29.136Z,24.11
2023-04-15T00:24:29.178Z,24.11
2023-04-15T00:25:29.277Z,24.10
2023-04-15T00:26:29.277Z,24.10
2023-04-15T00:27:29.302Z,24.10
2023-04-15T00:28:29.341Z,24.10
2023-04-15T00:29:29.374Z,24.11
2023-04-15T00:30:29.405Z,24.10
2023-04-15T00:31:29.656Z,24.09
2023-04-15T00:32:29.507Z,24.09
2023-04-15T00:33:29.492Z,24.09
2023-04-15T00:34:29.520Z,24.09
2023-04-15T00:35:29.542Z,24.09
2023-04-15T00:36:29.562Z,24.10
2023-04-15T00:37:29.611Z,24.09
2023-04-15T00:38:29.649Z,24.09
2023-04-15T00:39:29.740Z,24.10
2023-04-15T00:40:29.709Z,24.09
2023-04-15T00:41:29.758Z,24.09
2023-04-15T00:42:29.778Z,24.09
2023-04-15T00:43:29.834Z,24.09
2023-04-15T00:44:29.853Z,24.09
2023-04-15T00:45:30.029Z,24.08
2023-04-15T00:46:29.964Z,24.09
2023-04-15T00:47:30.049Z,24.09
2023-04-15T00:48:30.022Z,24.10
2023-04-15T00:49:30.082Z,24.09
2023-04-15T00:50:30.086Z,24.08
2023-04-15T00:51:30.146Z,24.09
2023-04-15T00:52:30.220Z,24.08
2023-04-15T00:53:30.257Z,24.09
2023-04-15T00:54:30.275Z,24.09
2023-04-15T00:55:30.295Z,24.08
2023-04-15T00:56:30.347Z,24.08
2023-04-15T00:57:30.355Z,24.09
2023-04-15T00:58:30.414Z,24.09
2023-04-15T00:59:30.424Z,24.09
2023-04-15T01:00:30.471Z,24.09
2023-04-15T01:01:30.535Z,24.09
2023-04-15T01:02:30.583Z,24.09
2023-04-15T01:03:30.629Z,24.09
2023-04-15T01:04:30.805Z,24.09
2023-04-15T01:05:30.602Z,24.09
2023-04-15T01:06:30.627Z,24.09
2023-04-15T01:07:30.663Z,24.09
2023-04-15T01:08:30.685Z,24.09
2023-04-15T01:09:30.745Z,24.10
2023-04-15T01:10:30.760Z,24.10
2023-04-15T01:11:30.789Z,24.09
2023-04-15T01:12:30.839Z,24.09
2023-04-15T01:13:30.892Z,24.08
2023-04-15T01:14:30.938Z,24.09
2023-04-15T01:15:30.978Z,24.09
2023-04-15T01:16:31.052Z,24.09
2023-04-15T01:17:31.078Z,24.10
2023-04-15T01:18:31.073Z,24.09
2023-04-15T01:19:31.111Z,24.09
2023-04-15T01:20:31.147Z,24.09
2023-04-15T01:21:31.169Z,24.10
2023-04-15T01:22:31.214Z,24.08
2023-04-15T01:23:31.240Z,24.08
2023-04-15T01:24:31.300Z,24.09
2023-04-15T01:25:31.328Z,24.08
2023-04-15T01:26:31.406Z,24.09
2023-04-15T01:27:31.385Z,24.08
2023-04-15T01:28:31.411Z,24.08
2023-04-15T01:29:31.455Z,24.08
2023-04-15T01:30:31.495Z,24.08
2023-04-15T01:31:31.659Z,24.08
2023-04-15T01:32:31.579Z,24.08
2023-04-15T01:33:31.569Z,24.08
2023-04-15T01:34:32.576Z,24.08
2023-04-15T01:35:31.594Z,24.08
2023-04-15T01:36:31.571Z,24.08
2023-04-15T01:37:31.582Z,24.08
2023-04-15T01:38:31.566Z,24.08
2023-04-15T01:39:31.566Z,24.07
2023-04-15T01:40:31.564Z,24.08
2023-04-15T01:41:31.580Z,24.07
2023-04-15T01:42:31.565Z,24.06
2023-04-15T01:43:31.528Z,24.07
2023-04-15T01:44:31.540Z,24.07
2023-04-15T01:45:31.522Z,24.07
2023-04-15T01:46:31.577Z,24.06
2023-04-15T01:47:31.532Z,24.06
2023-04-15T01:48:31.485Z,24.07
2023-04-15T01:49:31.484Z,24.07
2023-04-15T01:50:31.549Z,24.06
2023-04-15T01:51:31.500Z,24.07
2023-04-15T01:52:31.470Z,24.07
2023-04-15T01:53:31.451Z,24.07
2023-04-15T01:54:31.449Z,24.07
2023-04-15T01:55:31.454Z,24.06
2023-04-15T01:56:31.430Z,24.06
2023-04-15T01:57:31.424Z,24.06
2023-04-15T01:58:31.431Z,24.05
2023-04-15T01:59:31.432Z,24.06
2023-04-15T02:00:31.419Z,24.05
2023-04-15T02:01:31.442Z,24.06
2023-04-15T02:02:31.515Z,24.05
2023-04-15T02:03:31.534Z,24.05
2023-04-15T02:04:31.392Z,24.05
2023-04-15T02:05:31.400Z,24.05
2023-04-15T02:06:31.382Z,24.05
2023-04-15T02:07:31.393Z,24.05
2023-04-15T02:08:31.371Z,24.05
2023-04-15T02:09:31.358Z,24.05
2023-04-15T02:10:31.361Z,24.05
2023-04-15T02:11:31.324Z,24.06
2023-04-15T02:12:31.350Z,24.05
2023-04-15T02:13:31.340Z,24.05
2023-04-15T02:14:31.328Z,24.05
2023-04-15T02:15:31.742Z,24.04
2023-04-15T02:16:31.344Z,24.04
2023-04-15T02:17:31.298Z,24.04
2023-04-15T02:18:31.291Z,24.05
2023-04-15T02:19:31.269Z,24.05
2023-04-15T02:20:31.272Z,24.05
2023-04-15T02:21:31.276Z,24.04
2023-04-15T02:22:31.264Z,24.04
2023-04-15T02:23:31.272Z,24.05
2023-04-15T02:24:31.262Z,24.04
2023-04-15T02:25:31.245Z,24.04
2023-04-15T02:26:31.229Z,24.05
2023-04-15T02:27:31.233Z,24.05
2023-04-15T02:28:31.225Z,24.04
2023-04-15T02:29:31.233Z,24.04
2023-04-15T02:30:31.213Z,24.05
2023-04-15T02:31:31.230Z,24.04
2023-04-15T02:32:31.223Z,24.04
2023-04-15T02:33:31.175Z,24.04
2023-04-15T02:34:31.180Z,24.04
2023-04-15T02:35:31.167Z,24.03
2023-04-15T02:36:31.162Z,24.03
2023-04-15T02:37:31.189Z,24.03
2023-04-15T02:38:31.175Z,24.04
2023-04-15T02:39:31.221Z,24.03
2023-04-15T02:40:31.259Z,24.03
2023-04-15T02:41:31.265Z,24.03
2023-04-15T02:42:31.328Z,24.03
2023-04-15T02:43:31.336Z,24.03
2023-04-15T02:44:31.376Z,24.02
2023-04-15T02:45:31.405Z,24.03
2023-04-15T02:46:31.451Z,24.02
2023-04-15T02:47:31.484Z,24.02
2023-04-15T02:48:31.507Z,24.02
2023-04-15T02:49:31.565Z,24.02
2023-04-15T02:50:31.660Z,24.02
2023-04-15T02:51:31.645Z,24.01
2023-04-15T02:52:31.674Z,24.03
2023-04-15T02:53:31.675Z,24.03
2023-04-15T02:54:31.703Z,24.03
2023-04-15T02:55:31.753Z,24.02
2023-04-15T02:56:31.758Z,24.02
2023-04-15T02:57:31.819Z,24.02
2023-04-15T02:58:31.854Z,24.03
2023-04-15T02:59:31.876Z,24.02
2023-04-15T03:00:31.906Z,24.01
2023-04-15T03:01:31.980Z,24.02
2023-04-15T03:02:32.048Z,24.02
2023-04-15T03:03:32.094Z,24.02
2023-04-15T03:04:32.024Z,24.02
2023-04-15T03:05:32.079Z,24.02
2023-04-15T03:06:32.114Z,24.02
2023-04-15T03:07:32.156Z,24.01
2023-04-15T03:08:32.174Z,24.02
2023-04-15T03:09:32.223Z,24.01
2023-04-15T03:10:32.276Z,24.01
2023-04-15T03:11:32.300Z,24.01
2023-04-15T03:12:32.388Z,24.01
2023-04-15T03:13:32.359Z,24.01
2023-04-15T03:14:32.398Z,24.01
2023-04-15T03:15:32.472Z,24.01
2023-04-15T03:16:32.445Z,24.01
2023-04-15T03:17:32.513Z,24.01
2023-04-15T03:18:32.485Z,24.00
2023-04-15T03:19:32.529Z,24.01
2023-04-15T03:20:32.609Z,24.01
2023-04-15T03:21:32.562Z,24.01
2023-04-15T03:22:32.611Z,24.01
2023-04-15T03:23:32.658Z,24.00
2023-04-15T03:24:32.690Z,24.00
2023-04-15T03:25:32.732Z,24.00
2023-04-15T03:26:32.771Z,24.01
2023-04-15T03:27:32.800Z,24.00
2023-04-15T03:28:32.828Z,24.00
2023-04-15T03:29:32.852Z,24.00
2023-04-15T03:30:32.887Z,24.00
2023-04-15T03:31:32.992Z,24.00
2023-04-15T03:32:32.948Z,24.00
2023-04-15T03:33:32.993Z,24.00
2023-04-15T03:34:32.987Z,24.01
2023-04-15T03:35:33.031Z,24.01
2023-04-15T03:36:33.079Z,24.00
2023-04-15T03:37:33.094Z,24.00
2023-04-15T03:38:33.124Z,24.00
2023-04-15T03:39:33.184Z,24.00
2023-04-15T03:40:33.192Z,23.99
2023-04-15T03:41:33.237Z,23.99
2023-04-15T03:42:33.284Z,24.00
2023-04-15T03:43:33.322Z,24.00
2023-04-15T03:44:33.336Z,24.00
2023-04-15T03:45:33.377Z,23.99
2023-04-15T03:46:33.441Z,23.98
2023-04-15T03:47:33.494Z,23.99
2023-04-15T03:48:33.500Z,23.99
2023-04-15T03:49:33.537Z,23.98
2023-04-15T03:50:33.570Z,23.99
2023-04-15T03:51:33.641Z,23.98
2023-04-15T03:52:33.637Z,23.98
2023-04-15T03:53:33.673Z,23.98
2023-04-15T03:54:33.705Z,23.98
2023-04-15T03:55:33.738Z,23.99
2023-04-15T03:56:33.744Z,23.99
2023-04-15T03:57:33.796Z,23.98
2023-04-15T03:58:33.835Z,23.98
2023-04-15T03:59:33.875Z,23.98
2023-04-15T04:00:33.894Z,23.98
2023-04-15T04:01:33.987Z,23.98
2023-04-15T04:02:34.100Z,23.98
2023-04-15T04:03:34.258Z,23.98
2023-04-15T04:04:34.046Z,23.98
2023-04-15T04:05:34.077Z,23.98
2023-04-15T04:06:34.096Z,23.97
2023-04-15T04:07:34.088Z,23.97
2023-04-15T04:08:34.124Z,23.97
2023-04-15T04:09:34.150Z,23.97
2023-04-15T04:10:34.191Z,23.97
2023-04-15T04:11:34.199Z,23.98
2023-04-15T04:12:34.242Z,23.97
2023-04-15T04:13:34.301Z,23.97
2023-04-15T04:14:34.335Z,23.97
2023-04-15T04:15:34.406Z,23.97
2023-04-15T04:16:34.466Z,23.97
2023-04-15T04:17:34.495Z,23.98
2023-04-15T04:18:34.467Z,23.97
2023-04-15T04:19:34.534Z,23.97
2023-04-15T04:20:34.551Z,23.97
2023-04-15T04:21:34.596Z,23.97
2023-04-15T04:22:34.619Z,23.97
2023-04-15T04:23:34.655Z,23.97
2023-04-15T04:24:34.676Z,23.96
2023-04-15T04:25:34.748Z,23.97
2023-04-15T04:26:34.754Z,23.97
2023-04-15T04:27:34.777Z,23.97
2023-04-15T04:28:34.811Z,23.96
2023-04-15T04:29:34.875Z,23.96
2023-04-15T04:30:34.875Z,23.97
2023-04-15T04:31:34.934Z,23.96
2023-04-15T04:32:35.014Z,23.95
2023-04-15T04:33:34.994Z,23.96
2023-04-15T04:34:35.075Z,23.96
2023-04-15T04:35:35.110Z,23.96
2023-04-15T04:36:35.155Z,23.96
2023-04-15T04:37:35.190Z,23.96
2023-04-15T04:38:35.233Z,23.96
2023-04-15T04:39:35.269Z,23.96
2023-04-15T04:40:35.350Z,23.96
2023-04-15T04:41:35.383Z,23.96
2023-04-15T04:42:36.853Z,23.97
2023-04-15T04:43:35.368Z,23.96
2023-04-15T04:44:35.363Z,23.95
2023-04-15T04:45:35.379Z,23.96
2023-04-15T04:46:35.394Z,23.96
2023-04-15T04:47:35.387Z,23.97
2023-04-15T04:48:35.371Z,23.97
2023-04-15T04:49:35.341Z,23.96
2023-04-15T04:50:35.338Z,23.96
2023-04-15T04:51:35.310Z,23.96
2023-04-15T04:52:35.296Z,23.96
2023-04-15T04:53:35.316Z,23.96
2023-04-15T04:54:35.308Z,23.95
2023-04-15T04:55:35.289Z,23.96
2023-04-15T04:56:35.277Z,23.96
2023-04-15T04:57:35.269Z,23.96
2023-04-15T04:58:35.265Z,23.96
2023-04-15T04:59:35.263Z,23.96
2023-04-15T05:00:35.242Z,23.95
2023-04-15T05:01:35.307Z,23.95
2023-04-15T05:02:35.366Z,23.95
2023-04-15T05:03:35.376Z,23.95
2023-04-15T05:04:35.263Z,23.96
2023-04-15T05:05:35.233Z,23.95
2023-04-15T05:06:35.212Z,23.95
2023-04-15T05:07:35.202Z,23.95
2023-04-15T05:08:35.203Z,23.95
2023-04-15T05:09:35.200Z,23.95
2023-04-15T05:10:35.190Z,23.95
2023-04-15T05:11:35.229Z,23.95
2023-04-15T05:12:35.189Z,23.95
2023-04-15T05:13:35.170Z,23.95
2023-04-15T05:14:35.182Z,23.95
2023-04-15T05:15:35.232Z,23.95
2023-04-15T05:16:35.139Z,23.95
2023-04-15T05:17:35.233Z,23.95
2023-04-15T05:18:35.133Z,23.96
2023-04-15T05:19:35.118Z,23.96
2023-04-15T05:20:35.114Z,23.97
2023-04-15T05:21:35.897Z,23.98
2023-04-15T05:22:35.105Z,23.96
2023-04-15T05:23:35.094Z,23.97
2023-04-15T05:24:35.115Z,23.97
2023-04-15T05:25:35.088Z,23.98
2023-04-15T05:26:35.078Z,23.97
2023-04-15T05:27:35.055Z,23.98
2023-04-15T05:28:35.071Z,23.99
2023-04-15T05:29:35.196Z,24.00
2023-04-15T05:30:35.073Z,24.00
2023-04-15T05:31:35.182Z,24.00
2023-04-15T05:32:35.075Z,23.99
2023-04-15T05:33:35.039Z,24.01
2023-04-15T05:34:35.036Z,24.01
2023-04-15T05:35:35.075Z,24.01
2023-04-15T05:36:35.089Z,24.01
2023-04-15T05:37:35.134Z,24.01
2023-04-15T05:38:35.179Z,24.02
2023-04-15T05:39:35.225Z,24.02
2023-04-15T05:40:35.239Z,24.02
2023-04-15T05:41:35.297Z,24.02
2023-04-15T05:42:35.329Z,24.01
2023-04-15T05:43:35.357Z,24.02
2023-04-15T05:44:35.431Z,24.02
2023-04-15T05:45:35.455Z,24.03
2023-04-15T05:46:35.545Z,24.03
2023-04-15T05:47:35.550Z,24.04
2023-04-15T05:48:35.568Z,24.03
2023-04-15T05:49:35.600Z,24.04
2023-04-15T05:50:35.649Z,24.04
2023-04-15T05:51:35.673Z,24.04
2023-04-15T05:52:35.709Z,24.04
2023-04-15T05:53:35.747Z,24.04
2023-04-15T05:54:35.783Z,24.05
2023-04-15T05:55:35.847Z,24.05
2023-04-15T05:56:35.891Z,24.05
2023-04-15T05:57:35.921Z,24.04
2023-04-15T05:58:35.961Z,24.05
2023-04-15T05:59:35.979Z,24.05
2023-04-15T06:00:36.023Z,24.06
2023-04-15T06:01:36.084Z,24.06
2023-04-15T06:02:36.249Z,24.07
2023-04-15T06:03:36.315Z,24.06
2023-04-15T06:04:36.242Z,24.07
2023-04-15T06:05:36.203Z,24.07
2023-04-15T06:06:36.222Z,24.07
2023-04-15T06:07:36.238Z,24.07
2023-04-15T06:08:36.290Z,24.07
2023-04-15T06:09:36.347Z,24.07
2023-04-15T06:10:36.456Z,24.07
2023-04-15T06:11:36.415Z,24.07
2023-04-15T06:12:36.449Z,24.07
2023-04-15T06:13:36.463Z,24.07
2023-04-15T06:14:36.515Z,24.08
2023-04-15T06:15:36.548Z,24.08
2023-04-15T06:16:36.693Z,24.08
2023-04-15T06:17:36.646Z,24.08
2023-04-15T06:18:36.649Z,24.09
2023-04-15T06:19:36.704Z,24.09
2023-04-15T06:20:36.707Z,24.09
2023-04-15T06:21:36.721Z,24.10
2023-04-15T06:22:36.759Z,24.10
2023-04-15T06:23:36.790Z,24.10
2023-04-15T06:24:36.853Z,24.11
2023-04-15T06:25:36.841Z,24.11
2023-04-15T06:26:36.871Z,24.11
2023-04-15T06:27:36.883Z,24.12
2023-04-15T06:28:36.931Z,24.13
2023-04-15T06:29:36.965Z,24.13
2023-04-15T06:30:36.971Z,24.14
2023-04-15T06:31:37.027Z,24.15
2023-04-15T06:32:37.092Z,24.15
2023-04-15T06:33:37.156Z,24.16
2023-04-15T06:34:37.077Z,24.16
2023-04-15T06:35:37.118Z,24.16
2023-04-15T06:36:37.133Z,24.17
2023-04-15T06:37:37.200Z,24.17
2023-04-15T06:38:37.302Z,24.18
2023-04-15T06:39:37.226Z,24.19
2023-04-15T06:40:37.243Z,24.19
2023-04-15T06:41:37.267Z,24.20
2023-04-15T06:42:37.295Z,24.21
2023-04-15T06:43:37.320Z,24.21
2023-04-15T06:44:37.359Z,24.22
2023-04-15T06:45:37.409Z,24.22
2023-04-15T06:46:37.391Z,24.23
2023-04-15T06:47:37.424Z,24.24
2023-04-15T06:48:37.424Z,24.24
2023-04-15T06:49:37.469Z,24.25
2023-04-15T06:50:37.453Z,24.25
2023-04-15T06:51:37.453Z,24.26
2023-04-15T06:52:37.460Z,24.26
2023-04-15T06:53:37.492Z,24.28
2023-04-15T06:54:37.513Z,24.27
2023-04-15T06:55:37.515Z,24.28
2023-04-15T06:56:37.561Z,24.28
2023-04-15T06:57:37.622Z,24.29
2023-04-15T06:58:37.632Z,24.30
2023-04-15T06:59:37.672Z,24.29
2023-04-15T07:00:37.697Z,24.30
2023-04-15T07:01:37.731Z,24.31
2023-04-15T07:02:37.880Z,24.31
2023-04-15T07:03:37.779Z,24.31
2023-04-15T07:04:37.818Z,24.32
2023-04-15T07:05:37.775Z,24.32
2023-04-15T07:06:37.794Z,24.33
2023-04-15T07:07:37.813Z,24.33
2023-04-15T07:08:37.867Z,24.34
2023-04-15T07:09:37.918Z,24.35
2023-04-15T07:10:37.920Z,24.35
2023-04-15T07:11:37.949Z,24.36
2023-04-15T07:12:37.957Z,24.36
2023-04-15T07:13:37.954Z,24.37
2023-04-15T07:14:38.004Z,24.37
2023-04-15T07:15:38.017Z,24.38
2023-04-15T07:16:38.116Z,24.39
2023-04-15T07:17:38.114Z,24.39
2023-04-15T07:18:38.093Z,24.40
2023-04-15T07:19:38.154Z,24.42
2023-04-15T07:20:38.162Z,24.41
2023-04-15T07:21:39.991Z,24.42
2023-04-15T07:22:38.207Z,24.43
2023-04-15T07:23:38.216Z,24.43
2023-04-15T07:24:38.195Z,24.44
2023-04-15T07:25:38.191Z,24.45
2023-04-15T07:26:38.188Z,24.46
2023-04-15T07:27:38.199Z,24.47
2023-04-15T07:28:38.164Z,24.47
2023-04-15T07:29:38.200Z,24.48
2023-04-15T07:30:38.186Z,24.49
2023-04-15T07:31:38.144Z,24.49
2023-04-15T07:32:38.203Z,24.50
2023-04-15T07:33:38.140Z,24.50
2023-04-15T07:34:38.134Z,24.52
2023-04-15T07:35:38.131Z,24.52
2023-04-15T07:36:38.122Z,24.53
2023-04-15T07:37:38.105Z,24.54
2023-04-15T07:38:38.115Z,24.54
2023-04-15T07:39:38.106Z,24.55
2023-04-15T07:40:38.082Z,24.56
2023-04-15T07:41:38.088Z,24.57
2023-04-15T07:42:40.025Z,24.58
2023-04-15T07:43:38.059Z,24.57
2023-04-15T07:44:38.052Z,24.58
2023-04-15T07:45:38.076Z,24.59
2023-04-15T07:46:38.240Z,24.59
2023-04-15T07:47:38.062Z,24.60
2023-04-15T07:48:38.031Z,24.59
2023-04-15T07:49:38.005Z,24.60
2023-04-15T07:50:38.005Z,24.62
2023-04-15T07:51:38.009Z,24.62
2023-04-15T07:52:38.010Z,24.63
2023-04-15T07:53:38.003Z,24.62
2023-04-15T07:54:37.984Z,24.63
2023-04-15T07:55:37.982Z,24.64
2023-04-15T07:56:37.967Z,24.65
2023-04-15T07:57:37.959Z,24.65
2023-04-15T07:58:37.959Z,24.65
2023-04-15T07:59:37.975Z,24.66
2023-04-15T08:00:37.941Z,24.67
2023-04-15T08:01:37.948Z,24.68
2023-04-15T08:02:40.209Z,24.68
2023-04-15T08:03:38.142Z,24.68
2023-04-15T08:04:38.127Z,24.69
2023-04-15T08:05:37.894Z,24.70
2023-04-15T08:06:37.902Z,24.71
2023-04-15T08:07:37.954Z,24.72
2023-04-15T08:08:37.879Z,24.72
2023-04-15T08:09:37.883Z,24.73
2023-04-15T08:10:37.857Z,24.74
2023-04-15T08:11:37.848Z,24.75
2023-04-15T08:12:37.894Z,24.76
2023-04-15T08:13:37.836Z,24.77
2023-04-15T08:14:37.826Z,24.78
2023-04-15T08:15:37.844Z,24.80
2023-04-15T08:16:37.871Z,24.81
2023-04-15T08:17:37.846Z,24.81
2023-04-15T08:18:37.809Z,24.82
2023-04-15T08:19:37.793Z,24.83
2023-04-15T08:20:37.791Z,24.84
2023-04-15T08:21:37.783Z,24.84
2023-04-15T08:22:37.796Z,24.85
2023-04-15T08:23:37.766Z,24.86
2023-04-15T08:24:37.774Z,24.86
2023-04-15T08:25:37.758Z,24.87
2023-04-15T08:26:37.757Z,24.88
2023-04-15T08:27:37.777Z,24.89
2023-04-15T08:28:37.731Z,24.90
2023-04-15T08:29:37.746Z,24.90
2023-04-15T08:30:37.719Z,24.92
2023-04-15T08:31:37.752Z,24.92
2023-04-15T08:32:37.746Z,24.93
2023-04-15T08:33:37.716Z,24.94
2023-04-15T08:34:37.712Z,24.96
2023-04-15T08:35:37.716Z,24.97
2023-04-15T08:36:37.692Z,24.98
2023-04-15T08:37:37.701Z,24.98
2023-04-15T08:38:37.676Z,24.99
2023-04-15T08:39:37.647Z,25.00
2023-04-15T08:40:37.677Z,25.02
2023-04-15T08:41:37.636Z,25.03
2023-04-15T08:42:37.656Z,25.05
2023-04-15T08:43:37.636Z,25.07
2023-04-15T08:44:37.614Z,25.10
2023-04-15T08:45:37.630Z,25.11
2023-04-15T08:46:37.695Z,25.12
2023-04-15T08:47:37.705Z,25.14
2023-04-15T08:48:37.658Z,25.15
2023-04-15T08:49:37.584Z,25.19
2023-04-15T08:50:37.581Z,25.20
2023-04-15T08:51:37.597Z,25.22
2023-04-15T08:52:37.691Z,25.24
2023-04-15T08:53:37.704Z,25.26
2023-04-15T08:54:37.717Z,25.28
2023-04-15T08:55:37.791Z,25.30
2023-04-15T08:56:37.892Z,25.33
2023-04-15T08:57:37.829Z,25.35
2023-04-15T08:58:37.860Z,25.37
2023-04-15T08:59:37.905Z,25.38
2023-04-15T09:00:37.921Z,25.41
2023-04-15T09:01:38.192Z,25.45
2023-04-15T09:02:38.135Z,25.47
2023-04-15T09:03:38.093Z,25.50
2023-04-15T09:04:38.031Z,25.51
2023-04-15T09:05:38.047Z,25.51
2023-04-15T09:06:38.073Z,25.52
2023-04-15T09:07:38.106Z,25.52
2023-04-15T09:08:38.134Z,25.53
2023-04-15T09:09:38.157Z,25.55
2023-04-15T09:10:38.183Z,25.56
2023-04-15T09:11:38.224Z,25.57
2023-04-15T09:12:38.292Z,25.60
2023-04-15T09:13:38.312Z,25.61
2023-04-15T09:14:38.354Z,25.62
2023-04-15T09:15:38.377Z,25.64
2023-04-15T09:16:38.474Z,25.66
2023-04-15T09:17:38.501Z,25.69
2023-04-15T09:18:38.561Z,25.72
2023-04-15T09:19:38.588Z,25.75
2023-04-15T09:20:38.623Z,25.76
2023-04-15T09:21:38.645Z,25.78
2023-04-15T09:22:38.734Z,25.79
2023-04-15T09:23:38.725Z,25.80
2023-04-15T09:24:38.732Z,25.82
2023-04-15T09:25:38.727Z,25.82
2023-04-15T09:26:38.738Z,25.83
2023-04-15T09:27:38.737Z,25.85
2023-04-15T09:28:38.810Z,25.86
2023-04-15T09:29:38.843Z,25.87
2023-04-15T09:30:38.900Z,25.89
2023-04-15T09:31:38.909Z,25.92
2023-04-15T09:32:38.964Z,25.94
2023-04-15T09:33:38.950Z,25.96
2023-04-15T09:34:39.001Z,25.98
2023-04-15T09:35:39.021Z,25.99
2023-04-15T09:36:39.062Z,26.00
2023-04-15T09:37:39.080Z,26.02
2023-04-15T09:38:39.086Z,26.02
2023-04-15T09:39:39.109Z,26.03
2023-04-15T09:40:39.172Z,26.03
2023-04-15T09:41:39.209Z,26.04
2023-04-15T09:42:39.249Z,26.05
2023-04-15T09:43:39.257Z,26.06
2023-04-15T09:44:39.285Z,26.08
2023-04-15T09:45:39.311Z,26.09
2023-04-15T09:46:39.358Z,26.11
2023-04-15T09:47:39.383Z,26.13
2023-04-15T09:48:39.396Z,26.15
2023-04-15T09:49:39.475Z,26.17
2023-04-15T09:50:39.462Z,26.18
2023-04-15T09:51:39.454Z,26.18
2023-04-15T09:52:39.463Z,26.18
2023-04-15T09:53:39.500Z,26.21
2023-04-15T09:54:39.514Z,26.23
2023-04-15T09:55:39.521Z,26.25
2023-04-15T09:56:39.567Z,26.25
2023-04-15T09:57:39.584Z,26.25
2023-04-15T09:58:39.630Z,26.26
2023-04-15T09:59:39.709Z,26.28
2023-04-15T10:00:39.723Z,26.28
2023-04-15T10:01:39.791Z,26.29
2023-04-15T10:02:39.958Z,26.29
2023-04-15T10:03:39.847Z,26.29
2023-04-15T10:04:39.844Z,26.29
2023-04-15T10:05:39.881Z,26.29
2023-04-15T10:06:39.906Z,26.29
2023-04-15T10:07:39.913Z,26.29
2023-04-15T10:08:39.909Z,26.29
2023-04-15T10:09:39.943Z,26.29
2023-04-15T10:10:39.954Z,26.28
2023-04-15T10:11:39.969Z,26.29
2023-04-15T10:12:40.005Z,26.30
2023-04-15T10:13:40.035Z,26.29
2023-04-15T10:14:40.075Z,26.29
2023-04-15T10:15:40.132Z,26.28
2023-04-15T10:16:40.060Z,26.28
2023-04-15T10:17:40.115Z,26.28
2023-04-15T10:18:40.124Z,26.28
2023-04-15T10:19:40.170Z,26.28
2023-04-15T10:20:40.230Z,26.27
2023-04-15T10:21:40.257Z,26.27
2023-04-15T10:22:40.274Z,26.26
2023-04-15T10:23:40.309Z,26.26
2023-04-15T10:24:40.344Z,26.26
2023-04-15T10:25:40.346Z,26.25
2023-04-15T10:26:40.385Z,26.24
2023-04-15T10:27:40.370Z,26.25
2023-04-15T10:28:40.436Z,26.25
2023-04-15T10:29:40.462Z,26.24
2023-04-15T10:30:40.478Z,26.24
2023-04-15T10:31:40.555Z,26.24
2023-04-15T10:32:40.525Z,26.23
2023-04-15T10:33:40.501Z,26.23
2023-04-15T10:34:40.526Z,26.22
2023-04-15T10:35:40.570Z,26.22
2023-04-15T10:36:40.609Z,26.22
2023-04-15T10:37:40.635Z,26.21
2023-04-15T10:38:40.674Z,26.21
2023-04-15T10:39:40.703Z,26.21
2023-04-15T10:40:40.711Z,26.20
2023-04-15T10:41:40.726Z,26.20
2023-04-15T10:42:40.808Z,26.20
2023-04-15T10:43:40.794Z,26.19
2023-04-15T10:44:40.882Z,26.17
2023-04-15T10:45:40.891Z,26.17
2023-04-15T10:46:40.955Z,26.16
2023-04-15T10:47:40.912Z,26.16
2023-04-15T10:48:40.918Z,26.16
2023-04-15T10:49:40.927Z,26.17
2023-04-15T10:50:40.962Z,26.16
2023-04-15T10:51:40.997Z,26.15
2023-04-15T10:52:41.075Z,26.15
2023-04-15T10:53:41.063Z,26.14
2023-04-15T10:54:41.092Z,26.14
2023-04-15T10:55:41.118Z,26.14
2023-04-15T10:56:41.145Z,26.13
2023-04-15T10:57:41.184Z,26.13
2023-04-15T10:58:41.215Z,26.13
2023-04-15T10:59:41.228Z,26.12
2023-04-15T11:00:41.264Z,26.12
2023-04-15T11:01:41.296Z,26.11
2023-04-15T11:02:41.536Z,26.10
2023-04-15T11:03:41.506Z,26.10
2023-04-15T11:04:43.078Z,26.09
2023-04-15T11:05:41.409Z,26.08
2023-04-15T11:06:41.422Z,26.08
2023-04-15T11:07:41.475Z,26.07
2023-04-15T11:08:41.482Z,26.05
2023-04-15T11:09:41.522Z,26.04
2023-04-15T11:10:41.569Z,26.04
2023-04-15T11:11:41.565Z,26.03
2023-04-15T11:12:41.599Z,26.03
2023-04-15T11:13:41.650Z,26.02
2023-04-15T11:14:41.696Z,26.02
2023-04-15T11:15:41.718Z,26.01
2023-04-15T11:16:41.800Z,26.00
2023-04-15T11:17:41.869Z,25.99
2023-04-15T11:18:41.824Z,25.99
2023-04-15T11:19:41.854Z,25.98
2023-04-15T11:20:41.873Z,25.98
2023-04-15T11:21:41.881Z,25.97
2023-04-15T11:22:41.937Z,25.97
2023-04-15T11:23:41.941Z,25.97
2023-04-15T11:24:42.001Z,25.96
2023-04-15T11:25:42.007Z,25.97
2023-04-15T11:26:42.054Z,25.96
2023-04-15T11:27:42.076Z,25.96
2023-04-15T11:28:42.124Z,25.96
2023-04-15T11:29:42.157Z,25.97
2023-04-15T11:30:42.237Z,25.97
2023-04-15T11:31:42.279Z,25.97
2023-04-15T11:32:42.311Z,25.98
2023-04-15T11:33:42.287Z,25.99
2023-04-15T11:34:42.285Z,25.99
2023-04-15T11:35:42.387Z,25.99
2023-04-15T11:36:42.348Z,25.99
2023-04-15T11:37:42.360Z,25.99
2023-04-15T11:38:42.400Z,25.99
2023-04-15T11:39:42.398Z,26.00
2023-04-15T11:40:43.977Z,25.99
2023-04-15T11:41:42.429Z,25.99
2023-04-15T11:42:49.458Z,25.99
2023-04-15T11:43:43.446Z,25.99
2023-04-15T11:44:42.436Z,25.99
2023-04-15T11:45:42.440Z,25.99
2023-04-15T11:46:44.407Z,25.98
2023-04-15T11:47:42.459Z,25.98
2023-04-15T11:48:42.390Z,25.97
2023-04-15T11:49:42.368Z,25.97
2023-04-15T11:50:42.402Z,25.96
2023-04-15T11:51:42.398Z,25.96
2023-04-15T11:52:42.365Z,25.95
2023-04-15T11:53:42.347Z,25.95
2023-04-15T11:54:42.330Z,25.93
2023-04-15T11:55:42.357Z,25.93
2023-04-15T11:56:42.338Z,25.92
2023-04-15T11:57:42.314Z,25.92
2023-04-15T11:58:42.324Z,25.91
2023-04-15T11:59:45.526Z,25.90
2023-04-15T12:00:42.303Z,25.89
2023-04-15T12:01:42.323Z,25.89
2023-04-15T12:02:42.372Z,25.88
2023-04-15T12:03:42.418Z,25.87
2023-04-15T12:04:42.465Z,25.86
2023-04-15T12:05:42.258Z,25.86
2023-04-15T12:06:42.253Z,25.85
2023-04-15T12:07:42.236Z,25.83
2023-04-15T12:08:42.244Z,25.83
2023-04-15T12:09:42.238Z,25.82
2023-04-15T12:10:42.219Z,25.83
2023-04-15T12:11:42.222Z,25.82
2023-04-15T12:12:42.217Z,25.83
2023-04-15T12:13:42.198Z,25.82
2023-04-15T12:14:42.186Z,25.82
2023-04-15T12:15:42.207Z,25.82
2023-04-15T12:16:49.201Z,25.82
2023-04-15T12:17:51.562Z,25.82
2023-04-15T12:18:43.179Z,25.81
2023-04-15T12:19:42.140Z,25.81
2023-04-15T12:20:42.141Z,25.83
2023-04-15T12:21:42.138Z,25.84
2023-04-15T12:22:42.139Z,25.84
2023-04-15T12:23:42.114Z,25.85
2023-04-15T12:24:42.121Z,25.85
2023-04-15T12:25:42.124Z,25.85
2023-04-15T12:26:42.130Z,25.86
2023-04-15T12:27:42.089Z,25.86
2023-04-15T12:28:42.104Z,25.86
2023-04-15T12:29:42.074Z,25.85
2023-04-15T12:30:42.069Z,25.86
2023-04-15T12:31:42.097Z,25.87
2023-04-15T12:32:43.533Z,25.87
2023-04-15T12:33:42.043Z,25.87
2023-04-15T12:34:42.065Z,25.87
2023-04-15T12:35:42.059Z,25.87
2023-04-15T12:36:42.028Z,25.86
2023-04-15T12:37:42.030Z,25.87
2023-04-15T12:38:42.018Z,25.85
2023-04-15T12:39:42.009Z,25.85
2023-04-15T12:40:42.024Z,25.84
2023-04-15T12:41:42.014Z,25.84
2023-04-15T12:42:42.001Z,25.84
2023-04-15T12:43:42.030Z,25.84
2023-04-15T12:44:41.965Z,25.83
2023-04-15T12:45:41.971Z,25.82
2023-04-15T12:46:42.011Z,25.82
2023-04-15T12:47:41.983Z,25.81
2023-04-15T12:48:41.961Z,25.80
2023-04-15T12:49:41.929Z,25.79
2023-04-15T12:50:41.942Z,25.78
2023-04-15T12:51:41.958Z,25.77
2023-04-15T12:52:42.019Z,25.76